Time;durP1;ratioP1;P1;durP2;ratioP2;P2;SDS_P1;SDS_P2;PMS_P1;PMS_P2;Temp;Humidity;BMP_temperature;BMP_pressure;BME280_temperature;BME280_humidity;BME280_pressure;Samples;Min_cycle;Max_cycle;Signal;HPM_P1;HPM_P2
2022/06/15 00:01:00;;;;;;;2.70;1.10;;;;;;;29.48;21.28;98683.50;5086717;28;20384;-77
2022/06/15 00:03:32;;;;;;;1.75;0.95;;;;;;;29.73;21.20;98683.41;5094982;28;20116;-77
2022/06/15 00:06:06;;;;;;;1.70;0.73;;;;;;;29.57;21.46;98686.41;5085644;28;20032;-77
2022/06/15 00:08:32;;;;;;;0.80;0.80;;;;;;;29.35;21.60;98683.50;5084785;28;20447;-77
2022/06/15 00:11:15;;;;;;;3.10;0.95;;;;;;;29.36;21.27;98685.88;5084442;28;20395;-77
2022/06/15 00:13:41;;;;;;;2.45;1.13;;;;;;;29.53;21.48;98689.34;5082416;28;20070;-77
2022/06/15 00:16:07;;;;;;;1.17;0.90;;;;;;;29.63;21.51;98688.19;5082734;28;20052;-77
2022/06/15 00:18:34;;;;;;;2.17;1.20;;;;;;;29.82;20.98;98687.16;5089812;28;20032;-77
2022/06/15 00:21:01;;;;;;;2.03;0.90;;;;;;;29.93;20.86;98681.88;5087079;28;20028;-77
2022/06/15 00:23:29;;;;;;;1.42;1.00;;;;;;;29.65;21.04;98688.53;5088236;28;20032;-77
2022/06/15 00:25:55;;;;;;;2.00;1.20;;;;;;;29.81;20.87;98682.72;5087988;28;20028;-77
2022/06/15 00:28:22;;;;;;;2.35;1.00;;;;;;;29.22;21.56;98691.25;5088871;28;20428;-77
2022/06/15 00:30:50;;;;;;;3.78;1.10;;;;;;;29.12;22.23;98698.00;5089353;28;20039;-77
2022/06/15 00:33:19;;;;;;;1.95;1.15;;;;;;;29.21;21.72;98698.94;5090504;28;20142;-76
2022/06/15 00:35:57;;;;;;;2.92;1.30;;;;;;;29.23;21.28;98693.59;5087719;28;20024;-77
2022/06/15 00:38:26;;;;;;;2.35;0.80;;;;;;;29.55;20.86;98691.72;5081103;28;20074;-77
2022/06/15 00:40:52;;;;;;;2.30;1.10;;;;;;;29.75;21.05;98686.56;5088325;28;20059;-77
2022/06/15 00:43:46;;;;;;;1.73;1.13;;;;;;;29.50;20.78;98686.66;5088407;28;20073;-77
2022/06/15 00:46:22;;;;;;;2.35;0.90;;;;;;;29.52;20.70;98684.94;5084516;28;20048;-77
2022/06/15 00:48:56;;;;;;;1.92;1.05;;;;;;;29.38;21.09;98685.44;5088581;28;20039;-77
2022/06/15 00:51:24;;;;;;;2.97;1.00;;;;;;;29.50;21.10;98683.81;5086572;28;20079;-77
2022/06/15 00:53:51;;;;;;;1.40;1.13;;;;;;;29.60;20.67;98685.47;5089552;28;20059;-77
2022/06/15 00:56:19;;;;;;;2.72;1.40;;;;;;;29.31;20.83;98677.97;5087630;28;20033;-77
2022/06/15 00:58:49;;;;;;;4.13;1.33;;;;;;;29.33;20.92;98686.00;5090269;28;20480;-77
2022/06/15 01:01:16;;;;;;;1.38;1.02;;;;;;;29.25;20.99;98685.44;5084042;28;20491;-77
2022/06/15 01:03:44;;;;;;;1.02;0.90;;;;;;;29.25;21.25;98688.28;5089452;28;20028;-77
2022/06/15 01:06:48;;;;;;;3.20;1.00;;;;;;;29.24;20.61;98689.50;5085109;28;20042;-77
2022/06/15 01:09:20;;;;;;;4.53;1.17;;;;;;;29.11;20.96;98687.91;5088325;28;20138;-77
2022/06/15 01:12:19;;;;;;;2.50;1.02;;;;;;;29.05;21.11;98686.91;5088742;28;20522;-77
2022/06/15 01:15:02;;;;;;;1.75;1.13;;;;;;;28.89;20.66;98692.69;5084172;28;20035;-77
2022/06/15 01:17:55;;;;;;;1.75;1.10;;;;;;;28.73;20.81;98693.56;5086517;28;20036;-77
2022/06/15 01:20:31;;;;;;;1.38;0.90;;;;;;;28.82;20.84;98690.88;5087558;28;20032;-76
2022/06/15 01:23:16;;;;;;;2.38;0.98;;;;;;;28.97;20.72;98688.38;5083989;28;20024;-76
2022/06/15 01:26:03;;;;;;;1.70;1.45;;;;;;;28.61;21.25;98688.72;5083010;28;20040;-76
2022/06/15 01:28:38;;;;;;;3.08;1.13;;;;;;;28.50;21.91;98693.84;5081487;28;20117;-76
2022/06/15 01:31:19;;;;;;;1.35;1.00;;;;;;;28.65;21.13;98692.22;5083686;28;20028;-76
2022/06/15 01:33:50;;;;;;;;;;;;;;;28.79;21.42;98693.81;5083903;28;20527;-76
2022/06/15 01:36:57;;;;;;;1.77;1.00;;;;;;;29.12;20.92;98686.69;5082318;28;19919;-76
2022/06/15 01:39:59;;;;;;;1.65;0.82;;;;;;;29.27;20.01;98679.31;5088759;28;20522;-76
2022/06/15 01:42:33;;;;;;;3.38;1.25;;;;;;;29.44;20.16;98677.94;5089182;28;20120;-76
2022/06/15 01:45:04;;;;;;;1.75;1.27;;;;;;;29.34;20.17;98684.75;5086381;28;20517;-76
2022/06/15 01:47:33;;;;;;;2.03;1.25;;;;;;;29.19;20.04;98675.16;5089050;28;20036;-76
2022/06/15 01:50:04;;;;;;;1.38;1.00;;;;;;;29.29;20.17;98669.13;5087225;28;20115;-76
2022/06/15 01:52:35;;;;;;;1.80;1.02;;;;;;;29.18;20.32;98676.41;5089591;28;20024;-76
2022/06/15 01:55:11;;;;;;;1.58;0.80;;;;;;;29.06;20.22;98669.50;5087974;28;20025;-76
2022/06/15 01:57:39;;;;;;;1.48;1.10;;;;;;;29.21;20.12;98667.81;5087089;28;20081;-76
2022/06/15 02:00:11;;;;;;;0.82;0.80;;;;;;;29.27;19.96;98665.19;5090675;28;20039;-76
2022/06/15 02:02:44;;;;;;;;;;;;;;;29.31;20.38;98668.72;5078261;28;20031;-76
2022/06/15 02:05:42;;;;;;;1.55;1.20;;;;;;;29.43;20.08;98677.16;5088962;28;19915;-76
2022/06/15 02:08:31;;;;;;;3.90;1.00;;;;;;;29.43;19.83;98668.66;5090509;28;20480;-77
2022/06/15 02:11:15;;;;;;;1.02;0.90;;;;;;;29.45;20.19;98671.03;5085928;28;20055;-76
2022/06/15 02:14:05;;;;;;;1.02;0.80;;;;;;;29.25;20.65;98665.66;5091838;28;20036;-77
2022/06/15 02:16:45;;;;;;;1.45;1.08;;;;;;;29.18;20.90;98668.72;5088749;28;20059;-76
2022/06/15 02:19:15;;;;;;;0.98;0.88;;;;;;;29.16;20.45;98671.19;5088965;28;21037;-76
2022/06/15 02:21:44;;;;;;;2.83;0.98;;;;;;;29.37;20.32;98676.16;5086767;28;20031;-76
2022/06/15 02:24:14;;;;;;;4.03;1.17;;;;;;;29.54;20.36;98679.63;5091934;28;20163;-76
2022/06/15 02:26:41;;;;;;;1.00;0.85;;;;;;;29.58;20.21;98671.78;5092049;28;20044;-76
2022/06/15 02:29:19;;;;;;;1.73;0.80;;;;;;;29.36;20.27;98668.91;5088752;28;20119;-76
2022/06/15 02:31:45;;;;;;;2.63;1.08;;;;;;;29.48;20.27;98670.13;5090491;28;20472;-76
2022/06/15 02:34:12;;;;;;;2.08;1.10;;;;;;;29.62;20.75;98663.16;5082079;28;20063;-76
2022/06/15 02:36:38;;;;;;;2.88;0.98;;;;;;;29.57;20.69;98675.09;5088503;28;20126;-76
2022/06/15 02:39:07;;;;;;;1.67;0.80;;;;;;;29.37;20.78;98666.88;5084467;28;20028;-77
2022/06/15 02:41:34;;;;;;;0.95;0.88;;;;;;;29.56;20.31;98673.50;5085594;28;20032;-77
2022/06/15 02:44:03;;;;;;;1.92;0.93;;;;;;;29.16;20.70;98673.22;5088555;28;20039;-76
2022/06/15 02:46:34;;;;;;;1.50;0.82;;;;;;;29.23;20.40;98682.28;5086393;28;20090;-76
2022/06/15 02:49:00;;;;;;;1.60;0.73;;;;;;;29.46;20.67;98675.44;5087410;28;20036;-76
2022/06/15 02:51:46;;;;;;;2.67;1.08;;;;;;;29.67;20.12;98673.91;5085728;28;20032;-76
2022/06/15 02:54:22;;;;;;;2.22;0.88;;;;;;;29.36;20.19;98677.38;5086461;28;20135;-76
2022/06/15 02:56:49;;;;;;;2.10;0.70;;;;;;;28.91;20.58;98670.41;5089531;28;20071;-76
2022/06/15 02:59:16;;;;;;;1.45;0.93;;;;;;;28.58;21.16;98669.81;5095335;28;20027;-76
2022/06/15 03:01:42;;;;;;;1.17;0.85;;;;;;;28.83;20.85;98680.34;5085546;28;20036;-76
2022/06/15 03:04:09;;;;;;;1.23;0.80;;;;;;;29.06;20.83;98677.97;5088424;28;20042;-76
2022/06/15 03:06:35;;;;;;;1.60;0.80;;;;;;;29.12;20.63;98673.34;5082110;28;20032;-76
2022/06/15 03:09:01;;;;;;;1.35;0.70;;;;;;;28.76;21.30;98675.72;5074860;28;20115;-76
2022/06/15 03:11:28;;;;;;;0.88;0.88;;;;;;;28.65;21.25;98676.06;5085598;28;20043;-76
2022/06/15 03:13:54;;;;;;;1.42;0.80;;;;;;;28.95;20.94;98671.06;5079261;28;20047;-76
2022/06/15 03:16:21;;;;;;;2.10;1.10;;;;;;;29.19;20.76;98681.63;5088313;28;20208;-76
2022/06/15 03:18:47;;;;;;;1.88;0.70;;;;;;;29.16;20.73;98682.50;5078748;28;20075;-76
2022/06/15 03:21:15;;;;;;;3.63;0.70;;;;;;;28.89;20.71;98679.34;5086167;28;20392;-76
2022/06/15 03:23:41;;;;;;;1.05;0.95;;;;;;;29.09;20.65;98691.22;5089881;28;20122;-76
2022/06/15 03:26:07;;;;;;;1.38;0.80;;;;;;;29.34;20.38;98690.41;5084068;28;20032;-76
2022/06/15 03:28:34;;;;;;;1.48;1.02;;;;;;;29.18;20.54;98688.50;5086253;28;20029;-76
2022/06/15 03:31:01;;;;;;;2.20;0.90;;;;;;;28.87;21.26;98698.00;5087109;28;20035;-76
2022/06/15 03:33:27;;;;;;;1.10;0.80;;;;;;;28.98;20.63;98699.25;5079483;28;20079;-76
2022/06/15 03:35:53;;;;;;;1.17;0.80;;;;;;;29.26;20.60;98695.53;5087548;28;20028;-76
2022/06/15 03:38:19;;;;;;;1.83;0.80;;;;;;;29.44;20.40;98697.75;5082713;28;20032;-76
2022/06/15 03:40:47;;;;;;;0.82;0.80;;;;;;;29.59;20.27;98704.53;5082919;28;20111;-76
2022/06/15 03:43:15;;;;;;;1.63;0.70;;;;;;;29.60;20.22;98700.41;5082437;28;20032;-76
2022/06/15 03:45:42;;;;;;;0.98;0.88;;;;;;;29.79;19.80;98698.56;5089566;28;20044;-76
2022/06/15 03:48:09;;;;;;;3.00;0.85;;;;;;;29.86;20.03;98701.97;5086131;28;20039;-76
2022/06/15 03:50:37;;;;;;;1.88;0.77;;;;;;;29.94;19.70;98699.66;5084802;28;20028;-76
2022/06/15 03:53:05;;;;;;;1.05;0.82;;;;;;;29.98;19.86;98697.50;5088340;28;20032;-76
2022/06/15 03:55:32;;;;;;;1.30;0.60;;;;;;;29.74;19.77;98694.25;5089025;28;20032;-76
2022/06/15 03:57:59;;;;;;;1.17;0.90;;;;;;;29.25;20.35;98693.94;5087407;28;20118;-77
2022/06/15 04:00:28;;;;;;;1.75;0.75;;;;;;;28.85;20.95;98694.81;5084052;28;20032;-77
2022/06/15 04:02:54;;;;;;;2.40;0.70;;;;;;;29.00;21.22;98688.28;5088125;28;20032;-76
2022/06/15 04:05:24;;;;;;;0.82;0.63;;;;;;;29.40;20.66;98688.59;5083993;28;20499;-77
2022/06/15 04:10:35;;;;;;;0.80;0.80;;;;;;;29.59;20.64;98698.06;5083890;28;20047;-77
2022/06/15 04:13:02;;;;;;;1.58;0.88;;;;;;;29.43;21.07;98693.31;5085880;28;20388;-77
2022/06/15 04:15:29;;;;;;;1.10;0.80;;;;;;;29.54;21.38;98696.59;5085384;28;20487;-77
2022/06/15 04:17:55;;;;;;;2.25;1.05;;;;;;;29.56;21.66;98687.66;5092457;28;20103;-78
2022/06/15 04:20:33;;;;;;;1.45;1.10;;;;;;;29.48;21.69;98687.09;5088604;28;20419;-78
2022/06/15 04:23:05;;;;;;;1.35;0.80;;;;;;;29.55;22.52;98680.38;5087494;28;20038;-77
2022/06/15 04:25:34;;;;;;;1.35;1.05;;;;;;;29.90;23.01;98682.00;5092765;28;20039;-78
2022/06/15 04:28:00;;;;;;;1.52;0.80;;;;;;;30.20;22.85;98686.94;5093568;28;20076;-78
2022/06/15 04:30:26;;;;;;;1.10;1.00;;;;;;;30.44;22.72;98688.09;5092955;28;20036;-78
2022/06/15 04:32:52;;;;;;;1.17;0.70;;;;;;;30.78;22.55;98676.59;5093494;28;20035;-79
2022/06/15 04:35:18;;;;;;;2.30;1.55;;;;;;;30.51;22.49;98672.84;5092573;28;20036;-79
2022/06/15 04:37:44;;;;;;;1.30;0.80;;;;;;;30.85;22.97;98672.72;5093218;28;20032;-78
2022/06/15 04:40:12;;;;;;;2.33;1.00;;;;;;;30.87;22.53;98670.19;5089535;28;20109;-78
2022/06/15 04:42:40;;;;;;;0.82;0.70;;;;;;;31.00;22.75;98672.94;5081987;28;20489;-78
2022/06/15 04:45:07;;;;;;;1.33;0.90;;;;;;;31.30;22.66;98672.06;5088593;28;20093;-79
2022/06/15 04:47:33;;;;;;;1.00;0.80;;;;;;;31.06;22.76;98673.91;5085386;28;20028;-78
2022/06/15 04:49:59;;;;;;;1.48;1.00;;;;;;;30.77;22.88;98663.69;5085747;28;20059;-78
2022/06/15 04:52:25;;;;;;;1.00;0.80;;;;;;;31.07;22.90;98676.28;5087435;28;20032;-79
2022/06/15 04:54:51;;;;;;;1.50;0.75;;;;;;;31.47;22.73;98667.75;5084559;28;20032;-79
2022/06/15 04:57:17;;;;;;;1.13;0.80;;;;;;;30.98;23.00;98669.78;5086126;28;20117;-79
2022/06/15 04:59:44;;;;;;;1.40;0.80;;;;;;;31.13;22.94;98665.13;5088574;28;20032;-79
2022/06/15 05:02:12;;;;;;;0.82;0.80;;;;;;;31.41;23.05;98673.22;5083429;28;20028;-78
2022/06/15 05:04:39;;;;;;;0.65;0.65;;;;;;;31.68;21.71;98672.50;5087142;28;20068;-78
2022/06/15 05:07:06;;;;;;;1.70;0.73;;;;;;;31.74;22.37;98667.00;5086407;28;20024;-79
2022/06/15 05:09:32;;;;;;;1.23;0.85;;;;;;;31.82;23.29;98674.72;5086389;28;20094;-81
2022/06/15 05:11:58;;;;;;;1.77;0.63;;;;;;;32.70;21.43;98679.19;5079958;28;20063;-80
2022/06/15 05:14:25;;;;;;;2.03;0.55;;;;;;;32.65;21.24;98673.41;5088752;28;20036;-79
2022/06/15 05:16:52;;;;;;;0.80;0.60;;;;;;;32.15;21.12;98669.19;5085917;28;20091;-78
2022/06/15 05:19:18;;;;;;;0.70;0.50;;;;;;;32.55;22.28;98671.84;5084774;28;20033;-78
2022/06/15 05:21:45;;;;;;;1.52;0.73;;;;;;;32.81;21.51;98673.03;5078538;28;20033;-77
2022/06/15 05:24:13;;;;;;;1.52;0.70;;;;;;;32.75;21.54;98677.75;5078679;28;20451;-77
2022/06/15 05:26:40;;;;;;;0.30;0.30;;;;;;;32.69;21.61;98674.00;5083535;28;20024;-78
2022/06/15 05:29:06;;;;;;;1.95;0.68;;;;;;;32.44;21.96;98675.13;5088252;28;20035;-77
2022/06/15 05:31:33;;;;;;;1.95;0.88;;;;;;;32.48;21.84;98681.47;5090581;28;20033;-77
2022/06/15 05:33:59;;;;;;;0.68;0.40;;;;;;;33.50;21.44;98680.56;5096511;28;20039;-77
2022/06/15 05:36:31;;;;;;;1.23;0.63;;;;;;;33.89;20.97;98680.16;5096336;28;20028;-78
2022/06/15 05:38:58;;;;;;;1.05;0.40;;;;;;;34.25;20.44;98689.69;5084927;28;20036;-77
2022/06/15 05:41:24;;;;;;;0.90;0.60;;;;;;;34.63;20.32;98678.25;5096093;28;20047;-78
2022/06/15 05:43:53;;;;;;;1.55;0.60;;;;;;;34.49;20.37;98684.69;5096431;28;20072;-78
2022/06/15 05:46:30;;;;;;;3.05;0.90;;;;;;;34.88;19.16;98677.63;5095208;28;20028;-78
2022/06/15 05:48:58;;;;;;;0.95;0.57;;;;;;;34.84;19.26;98684.81;5092577;28;20476;-78
2022/06/15 05:51:24;;;;;;;0.88;0.50;;;;;;;35.08;19.26;98683.41;5089643;28;20048;-78
2022/06/15 05:53:50;;;;;;;2.47;0.52;;;;;;;35.10;19.08;98683.69;5084175;28;20036;-78
2022/06/15 05:56:17;;;;;;;0.60;0.50;;;;;;;35.19;19.88;98682.81;5095286;28;20040;-78
2022/06/15 05:58:44;;;;;;;1.08;0.50;;;;;;;34.90;19.76;98683.63;5096261;28;20365;-78
2022/06/15 06:01:23;;;;;;;0.40;0.40;;;;;;;34.78;19.42;98681.84;5080154;28;20029;-78
2022/06/15 06:03:49;;;;;;;1.00;0.50;;;;;;;34.01;19.37;98684.81;5076182;28;20039;-78
2022/06/15 06:06:15;;;;;;;0.52;0.40;;;;;;;33.35;20.60;98691.91;5093416;28;20032;-78
2022/06/15 06:08:41;;;;;;;1.75;0.35;;;;;;;34.08;20.41;98686.50;5094570;28;20395;-78
2022/06/15 06:11:07;;;;;;;0.30;0.30;;;;;;;34.57;19.65;98680.19;5096143;28;20028;-78
2022/06/15 06:13:34;;;;;;;0.88;0.40;;;;;;;34.97;19.66;98683.22;5095478;28;20036;-78
2022/06/15 06:16:00;;;;;;;0.80;0.43;;;;;;;35.64;19.16;98676.44;5089300;28;20044;-78
2022/06/15 06:18:26;;;;;;;0.35;0.30;;;;;;;36.38;17.55;98682.53;5088906;28;20092;-78
2022/06/15 06:20:53;;;;;;;1.35;0.68;;;;;;;36.28;17.97;98676.19;5096092;28;20562;-78
2022/06/15 06:23:20;;;;;;;0.70;0.40;;;;;;;34.85;17.73;98675.75;5095061;28;20049;-78
2022/06/15 06:25:50;;;;;;;1.30;0.52;;;;;;;35.63;17.68;98683.47;5095766;28;20384;-78
2022/06/15 06:28:25;;;;;;;;;;;;;;;35.62;17.61;98681.09;5096304;28;20052;-78
2022/06/15 06:30:51;;;;;;;1.75;0.32;;;;;;;35.85;17.24;98686.59;5093530;28;19924;-78
2022/06/15 06:33:17;;;;;;;0.50;0.50;;;;;;;35.76;17.54;98692.44;5095255;28;20519;-78
2022/06/15 06:35:44;;;;;;;0.60;0.60;;;;;;;35.69;17.29;98698.59;5095910;28;20146;-78
2022/06/15 06:38:12;;;;;;;1.65;0.80;;;;;;;35.83;16.60;98705.53;5092962;28;20030;-78
2022/06/15 06:40:38;;;;;;;0.90;0.65;;;;;;;33.28;18.65;98712.97;5095259;28;20507;-78
2022/06/15 06:43:05;;;;;;;2.80;0.50;;;;;;;33.63;19.03;98703.94;5094511;28;20032;-78
2022/06/15 06:45:31;;;;;;;0.90;0.40;;;;;;;33.97;19.51;98701.31;5094189;28;20043;-78
2022/06/15 06:48:00;;;;;;;0.50;0.47;;;;;;;34.53;18.84;98699.56;5095089;28;20387;-78
2022/06/15 06:50:27;;;;;;;1.38;0.63;;;;;;;32.18;20.98;98695.88;5095570;28;20024;-78
2022/06/15 06:52:53;;;;;;;1.10;0.65;;;;;;;32.61;20.24;98696.28;5094786;28;20039;-78
2022/06/15 06:55:24;;;;;;;0.60;0.50;;;;;;;32.94;20.42;98698.41;5094859;28;20083;-78
2022/06/15 06:57:54;;;;;;;0.50;0.45;;;;;;;33.05;18.92;98702.31;5095234;28;20040;-78
2022/06/15 07:00:21;;;;;;;0.85;0.43;;;;;;;33.11;20.24;98699.63;5075215;28;20029;-78
2022/06/15 07:02:47;;;;;;;1.33;0.50;;;;;;;32.35;20.12;98695.06;5089688;28;20115;-78
2022/06/15 07:05:13;;;;;;;0.50;0.50;;;;;;;30.88;21.32;98707.88;5094611;28;20028;-78
2022/06/15 07:07:39;;;;;;;0.55;0.52;;;;;;;31.74;21.66;98704.66;5077285;28;20036;-78
2022/06/15 07:10:06;;;;;;;1.25;0.50;;;;;;;33.08;19.39;98706.28;5089591;28;20029;-78
2022/06/15 07:12:33;;;;;;;1.25;0.60;;;;;;;33.41;19.36;98704.22;5094506;28;20042;-78
2022/06/15 07:14:59;;;;;;;1.10;0.40;;;;;;;33.52;19.46;98703.66;5094927;28;20043;-79
2022/06/15 07:17:26;;;;;;;1.67;0.50;;;;;;;33.74;18.76;98707.03;5094483;28;20100;-78
2022/06/15 07:19:52;;;;;;;1.27;0.50;;;;;;;33.83;17.96;98709.81;5093312;28;20025;-78
2022/06/15 07:22:18;;;;;;;3.42;0.60;;;;;;;34.43;17.41;98706.59;5076175;28;20033;-78
2022/06/15 07:24:44;;;;;;;1.67;0.80;;;;;;;34.62;17.25;98705.97;5094589;28;20102;-78
2022/06/15 07:27:10;;;;;;;0.25;0.25;;;;;;;34.69;17.40;98702.72;5094878;28;20114;-78
2022/06/15 07:29:36;;;;;;;0.60;0.50;;;;;;;35.34;16.57;98694.94;5084877;28;20046;-78
2022/06/15 07:32:02;;;;;;;2.05;0.70;;;;;;;34.81;17.86;98698.00;5092780;28;20043;-78
2022/06/15 07:34:29;;;;;;;0.90;0.60;;;;;;;33.25;19.02;98701.78;5094465;28;20024;-79
2022/06/15 07:36:55;;;;;;;0.30;0.30;;;;;;;33.65;18.42;98699.34;5094027;28;20028;-78
2022/06/15 07:39:27;;;;;;;1.40;0.52;;;;;;;33.74;17.63;98704.97;5094407;28;20039;-79
2022/06/15 07:41:54;;;;;;;0.55;0.38;;;;;;;35.00;16.92;98693.66;5093893;28;20020;-79
2022/06/15 07:44:21;;;;;;;1.38;0.40;;;;;;;35.18;16.60;98690.56;5094423;28;20040;-79
2022/06/15 07:46:48;;;;;;;0.60;0.35;;;;;;;35.65;15.96;98694.38;5094211;28;20040;-79
2022/06/15 07:52:03;;;;;;;2.38;0.68;;;;;;;34.06;16.73;98706.97;5093366;28;20043;-79
2022/06/15 07:54:29;;;;;;;1.17;0.50;;;;;;;33.34;18.12;98701.72;5092998;28;20042;-78
2022/06/15 07:56:56;;;;;;;5.50;0.60;;;;;;;33.29;17.04;98708.06;5092875;28;20039;-78
2022/06/15 07:59:24;;;;;;;1.83;0.50;;;;;;;34.07;15.86;98702.81;5092525;28;20035;-79
2022/06/15 08:01:50;;;;;;;1.50;0.70;;;;;;;34.80;15.97;98695.66;5094189;28;20107;-78
2022/06/15 08:04:17;;;;;;;0.98;0.43;;;;;;;34.42;16.23;98694.44;5093544;28;20039;-78
2022/06/15 08:06:46;;;;;;;1.35;0.60;;;;;;;33.58;17.11;98704.63;5094099;28;20046;-78
2022/06/15 08:09:13;;;;;;;0.60;0.50;;;;;;;33.50;17.43;98692.75;5092659;28;20040;-79
2022/06/15 08:12:11;;;;;;;1.13;0.60;;;;;;;33.10;17.46;98698.03;5092360;28;20101;-79
2022/06/15 08:14:28;;;;;;;2.05;0.70;;;;;;;33.13;16.83;98700.72;5093118;28;20105;-79
2022/06/15 08:16:55;;;;;;;4.15;1.45;;;;;;;30.99;18.92;98702.56;5093272;28;20127;-79
2022/06/15 08:19:22;;;;;;;1.00;0.60;;;;;;;32.76;18.06;98696.41;5093835;28;20094;-79
2022/06/15 08:21:48;;;;;;;3.78;0.90;;;;;;;33.36;16.97;98705.66;5093543;28;20467;-78
2022/06/15 08:24:15;;;;;;;0.60;0.43;;;;;;;34.15;16.26;98696.75;5093407;28;20024;-79
2022/06/15 08:26:43;;;;;;;0.70;0.60;;;;;;;34.93;15.56;98698.97;5075735;28;20039;-78
2022/06/15 08:29:12;;;;;;;0.47;0.32;;;;;;;35.18;15.28;98689.78;5093663;28;20060;-78
2022/06/15 08:31:40;;;;;;;1.63;0.82;;;;;;;35.09;15.88;98692.75;5093549;28;20111;-78
2022/06/15 08:34:07;;;;;;;1.02;0.47;;;;;;;34.89;16.23;98689.81;5093128;28;20047;-78
2022/06/15 08:36:34;;;;;;;1.05;0.32;;;;;;;34.13;16.57;98702.16;5093485;28;20043;-79
2022/06/15 08:39:00;;;;;;;1.17;1.00;;;;;;;34.86;15.39;98691.59;5092629;28;20036;-79
2022/06/15 08:41:35;;;;;;;0.57;0.45;;;;;;;35.63;16.15;98699.81;5093703;28;20086;-79
2022/06/15 08:44:20;;;;;;;2.10;0.40;;;;;;;35.20;16.57;98698.63;5092980;28;20059;-79
2022/06/15 08:46:54;;;;;;;1.13;0.50;;;;;;;35.14;14.63;98694.91;5093095;28;20044;-78
2022/06/15 08:49:44;;;;;;;2.03;0.40;;;;;;;34.98;16.33;98690.50;5084210;28;20472;-79
2022/06/15 08:52:27;;;;;;;2.72;0.55;;;;;;;34.93;16.01;98696.91;5093402;28;20063;-78
2022/06/15 08:55:06;;;;;;;1.55;0.50;;;;;;;35.03;15.00;98686.94;5093174;28;20066;-78
2022/06/15 08:57:55;;;;;;;0.73;0.47;;;;;;;35.23;15.76;98694.78;5087069;28;20559;-78
2022/06/15 09:00:32;;;;;;;0.75;0.47;;;;;;;35.92;15.20;98702.50;5085128;28;20510;-79
2022/06/15 09:03:16;;;;;;;1.02;0.40;;;;;;;35.03;15.94;98691.91;5097208;28;20093;-79
2022/06/15 09:05:49;;;;;;;2.95;0.77;;;;;;;34.98;14.57;98695.41;5097445;28;20040;-78
2022/06/15 09:08:18;;;;;;;1.17;0.68;;;;;;;33.93;16.88;98705.63;5096773;28;20035;-78
2022/06/15 09:10:51;;;;;;;1.55;0.70;;;;;;;32.23;19.16;98698.84;5097235;28;20032;-79
2022/06/15 09:13:40;;;;;;;2.58;0.80;;;;;;;31.87;17.16;98702.50;5097127;28;20503;-78
2022/06/15 09:16:14;;;;;;;1.60;0.82;;;;;;;32.68;18.37;98695.16;5096960;28;20052;-78
2022/06/15 09:18:47;;;;;;;2.63;0.60;;;;;;;32.93;17.30;98706.13;5096357;28;20483;-79
2022/06/15 09:21:28;;;;;;;1.83;0.70;;;;;;;31.38;18.21;98691.19;5096597;28;20169;-79
2022/06/15 09:24:09;;;;;;;1.98;0.95;;;;;;;31.19;18.97;98688.78;5096952;28;20032;-79
2022/06/15 09:27:05;;;;;;;1.23;0.70;;;;;;;32.25;18.28;98702.03;5097152;28;20110;-79
2022/06/15 09:29:45;;;;;;;3.63;0.70;;;;;;;32.90;17.04;98698.59;5095010;28;20101;-79
2022/06/15 09:32:21;;;;;;;1.48;0.63;;;;;;;30.17;18.57;98704.09;5096881;28;20052;-79
2022/06/15 09:35:06;;;;;;;1.73;0.63;;;;;;;31.98;18.53;98690.66;5097090;28;20047;-79
2022/06/15 09:37:35;;;;;;;3.15;0.50;;;;;;;33.05;17.65;98696.63;5095852;28;20490;-78
2022/06/15 09:40:03;;;;;;;0.98;0.70;;;;;;;33.39;16.57;98693.31;5095074;28;20036;-79
2022/06/15 09:42:47;;;;;;;1.80;0.50;;;;;;;33.16;17.14;98687.59;5096480;28;20034;-79
2022/06/15 09:45:16;;;;;;;0.88;0.50;;;;;;;32.85;18.17;98676.47;5096128;28;20028;-79
2022/06/15 09:47:53;;;;;;;4.53;0.90;;;;;;;32.81;17.98;98677.91;5096278;28;20107;-79
2022/06/15 09:50:33;;;;;;;1.02;0.45;;;;;;;32.01;18.79;98689.72;5094620;28;20032;-79
2022/06/15 09:53:06;;;;;;;1.33;0.50;;;;;;;32.70;17.33;98686.94;5095899;28;20107;-79
2022/06/15 09:55:46;;;;;;;1.30;0.60;;;;;;;32.62;17.63;98683.66;5095915;28;20384;-79
2022/06/15 09:58:16;;;;;;;1.00;0.63;;;;;;;33.40;16.90;98685.53;5090679;28;20115;-79
2022/06/15 10:00:44;;;;;;;3.43;0.80;;;;;;;31.96;19.00;98685.47;5076067;28;20029;-79
2022/06/15 10:03:33;;;;;;;2.33;0.85;;;;;;;33.74;17.77;98687.09;5086140;28;20020;-79
2022/06/15 10:06:32;;;;;;;2.25;0.68;;;;;;;33.30;17.14;98684.81;5095943;28;20028;-79
2022/06/15 10:09:01;;;;;;;3.38;0.73;;;;;;;34.33;16.06;98680.25;5095850;28;20085;-79
2022/06/15 10:11:56;;;;;;;2.22;0.65;;;;;;;35.17;15.51;98671.09;5088581;28;20039;-79
2022/06/15 10:14:25;;;;;;;1.58;0.60;;;;;;;33.75;17.14;98672.34;5074583;28;20052;-80
2022/06/15 10:17:24;;;;;;;1.67;0.60;;;;;;;35.61;15.28;98668.88;5084269;28;20048;-79
2022/06/15 10:19:53;;;;;;;2.35;0.60;;;;;;;36.05;14.86;98680.09;5080200;28;20044;-79
2022/06/15 10:22:30;;;;;;;2.13;0.70;;;;;;;35.41;16.15;98675.34;5096121;28;20392;-79
2022/06/15 10:24:59;;;;;;;0.65;0.50;;;;;;;35.43;15.65;98661.34;5092347;28;20036;-79
2022/06/15 10:27:28;;;;;;;1.48;0.52;;;;;;;36.21;15.42;98667.28;5084946;28;20036;-79
2022/06/15 10:30:06;;;;;;;1.58;0.68;;;;;;;34.66;16.70;98660.91;5095363;28;20437;-79
2022/06/15 10:32:33;;;;;;;2.17;0.80;;;;;;;34.68;17.10;98663.28;5095317;28;20136;-79
2022/06/15 10:35:12;;;;;;;4.85;0.75;;;;;;;34.74;15.40;98659.25;5090249;28;20089;-79
2022/06/15 10:37:45;;;;;;;2.97;0.70;;;;;;;35.39;15.68;98659.97;5094827;28;20096;-79
2022/06/15 10:40:34;;;;;;;1.55;0.40;;;;;;;36.01;14.99;98653.81;5095821;28;20040;-79
2022/06/15 10:43:05;;;;;;;1.33;0.40;;;;;;;36.09;14.94;98654.94;5095727;28;20443;-79
2022/06/15 10:45:40;;;;;;;1.85;0.50;;;;;;;36.02;14.44;98653.31;5088289;28;20491;-79
2022/06/15 10:48:18;;;;;;;2.20;0.60;;;;;;;35.22;14.82;98650.38;5093862;28;20119;-79
2022/06/15 10:50:58;;;;;;;1.73;0.52;;;;;;;33.76;17.01;98653.19;5095925;28;20043;-79
2022/06/15 10:53:43;;;;;;;1.23;0.47;;;;;;;35.03;15.23;98640.53;5094718;28;20028;-80
2022/06/15 11:02:39;;;;;;;1.50;0.40;;;;;;;36.22;14.52;98643.91;5095360;28;20047;-79
2022/06/15 11:05:17;;;;;;;1.27;0.50;;;;;;;36.48;14.10;98638.97;5094739;28;20028;-79
2022/06/15 11:08:01;;;;;;;0.80;0.35;;;;;;;36.28;14.40;98632.50;5074790;28;20438;-79
2022/06/15 11:10:37;;;;;;;0.38;0.30;;;;;;;34.22;16.42;98637.28;5078698;28;20563;-79
2022/06/15 11:13:24;;;;;;;0.70;0.38;;;;;;;34.68;14.33;98626.19;5093762;28;20054;-79
2022/06/15 11:18:44;;;;;;;1.75;0.60;;;;;;;35.03;16.65;98637.66;5094285;28;20043;-79
2022/06/15 11:21:12;;;;;;;1.17;0.45;;;;;;;34.24;15.84;98637.56;5094960;28;20059;-79
2022/06/15 11:24:03;;;;;;;2.80;0.88;;;;;;;33.93;16.35;98635.19;5094626;28;20114;-79
2022/06/15 11:26:52;;;;;;;1.25;0.50;;;;;;;35.22;15.03;98631.19;5090023;28;20032;-79
2022/06/15 11:29:43;;;;;;;1.02;0.35;;;;;;;35.60;14.38;98621.59;5093601;28;20036;-79
2022/06/15 11:32:15;;;;;;;;;;;;;;;35.66;14.28;98628.16;5095015;28;20036;-79
2022/06/15 11:35:14;;;;;;;0.50;0.50;;;;;;;36.13;14.34;98621.16;5094443;28;19915;-79
2022/06/15 11:38:02;;;;;;;1.65;0.52;;;;;;;36.39;14.96;98618.28;5090614;28;20553;-79
2022/06/15 11:40:47;;;;;;;0.45;0.40;;;;;;;36.24;14.86;98609.06;5094714;28;20089;-79
2022/06/15 11:43:33;;;;;;;0.52;0.50;;;;;;;35.95;14.31;98619.41;5094144;28;20383;-79
2022/06/15 11:46:36;;;;;;;1.50;0.68;;;;;;;35.59;14.67;98627.81;5081992;28;20036;-79
2022/06/15 11:49:11;;;;;;;1.55;0.55;;;;;;;35.54;14.70;98623.59;5090796;28;20036;-79
2022/06/15 11:52:07;;;;;;;0.77;0.50;;;;;;;36.67;13.86;98622.22;5093793;28;20089;-79
2022/06/15 11:54:51;;;;;;;0.60;0.60;;;;;;;37.03;13.04;98604.28;5072425;28;20032;-79
2022/06/15 11:57:41;;;;;;;0.45;0.40;;;;;;;36.70;13.95;98599.09;5074017;28;20496;-79
2022/06/15 12:00:34;;;;;;;1.75;0.40;;;;;;;36.82;14.03;98614.28;5091086;28;20034;-79
2022/06/15 12:03:24;;;;;;;0.30;0.30;;;;;;;36.71;13.37;98608.47;5093754;28;20032;-79
2022/06/15 12:05:53;;;;;;;1.80;0.87;;;;;;;35.67;14.49;98611.78;5092358;28;20024;-79
2022/06/15 12:08:30;;;;;;;1.15;0.40;;;;;;;34.74;15.64;98612.78;5093393;28;20034;-79
2022/06/15 12:14:14;;;;;;;1.00;0.40;;;;;;;37.24;13.96;98602.84;5093800;28;20051;-79
2022/06/15 12:16:58;;;;;;;1.52;0.57;;;;;;;38.30;13.31;98603.28;5093221;28;20056;-80